Terminal Aerodrome Forecast
Issued by NWS

Home | Current Version | Previous Version | Text Only | Print | Product List | Glossary On
Versions: 1 2 3 4 5 6 7 8 9 10 11 12
000
FTUS46 KHNX 271720
TAFMCE
TAF
KMCE 271720Z 2718/2818 VRB03KT P6SM SCT150
     FM272200 28010KT P6SM SCT040 BKN100
      TEMPO 2801/2805 -RA BKN040
     FM280500 VRB04KT 5SM -RA BR OVC040=

USA.gov is the U.S. government's official web portal to all federal, state and local government web resources and services.